createdAt,value
2019-01-10T00:00:58.942Z,75.00
2019-01-10T00:03:28.039Z,76.00
2019-01-10T00:05:57.183Z,75.60
2019-01-10T00:08:26.210Z,76.00
2019-01-10T00:10:55.310Z,75.00
2019-01-10T00:13:24.352Z,75.00
2019-01-10T00:15:53.570Z,75.00
2019-01-10T00:18:22.651Z,75.00
2019-01-10T00:20:51.644Z,74.60
2019-01-10T00:23:20.646Z,75.00
2019-01-10T00:25:49.711Z,73.40
2019-01-10T00:28:18.807Z,75.00
2019-01-10T00:30:47.901Z,73.40
2019-01-10T00:33:17.007Z,73.00
2019-01-10T00:35:46.236Z,75.00
2019-01-10T00:38:15.247Z,73.80
2019-01-10T00:40:44.384Z,73.00
2019-01-10T00:43:13.584Z,72.60
2019-01-10T00:45:42.778Z,72.80
2019-01-10T00:48:12.063Z,73.00
2019-01-10T00:50:41.168Z,75.00
2019-01-10T00:53:10.273Z,75.00
2019-01-10T00:55:39.446Z,73.40
2019-01-10T00:58:08.692Z,72.40
2019-01-10T01:00:37.749Z,72.60
2019-01-10T01:03:06.984Z,72.00
2019-01-10T01:05:36.175Z,73.80
2019-01-10T01:08:05.487Z,73.40
2019-01-10T01:10:34.690Z,75.00
2019-01-10T01:13:03.787Z,72.00
2019-01-10T01:15:32.975Z,72.00
2019-01-10T01:18:02.226Z,73.00
2019-01-10T01:20:31.319Z,72.80
2019-01-10T01:23:00.393Z,72.60
2019-01-10T01:25:29.576Z,74.20
2019-01-10T01:27:58.762Z,72.40
2019-01-10T01:30:27.962Z,72.00
2019-01-10T01:32:57.107Z,70.00
2019-01-10T01:35:26.178Z,71.20
2019-01-10T01:37:55.377Z,72.20
2019-01-10T01:40:24.556Z,71.60
2019-01-10T01:42:53.708Z,72.40
2019-01-10T01:45:22.955Z,72.00
2019-01-10T01:47:52.048Z,70.40
2019-01-10T01:50:23.044Z,71.20
2019-01-10T01:52:53.693Z,72.00
2019-01-10T01:55:23.048Z,70.00
2019-01-10T01:57:52.358Z,72.00
2019-01-10T02:00:23.441Z,72.00
2019-01-10T02:02:53.839Z,70.00
2019-01-10T02:05:23.036Z,72.00
2019-01-10T02:07:52.537Z,71.20
2019-01-10T02:10:27.103Z,72.00
2019-01-10T02:12:57.521Z,69.00
2019-01-10T02:15:26.740Z,70.00
2019-01-10T02:17:55.833Z,72.00
2019-01-10T02:20:25.003Z,69.40
2019-01-10T02:22:54.184Z,70.00
2019-01-10T02:25:23.386Z,69.00
2019-01-10T02:27:52.572Z,72.00
2019-01-10T02:30:25.922Z,70.00
2019-01-10T02:32:55.187Z,70.00
2019-01-10T02:35:24.415Z,70.80
2019-01-10T02:37:53.582Z,71.20
2019-01-10T02:40:22.711Z,71.20
2019-01-10T02:42:51.794Z,72.00
2019-01-10T02:45:21.011Z,70.00
2019-01-10T02:47:49.976Z,71.20
2019-01-10T02:50:23.450Z,70.00
2019-01-10T02:52:52.587Z,72.60
2019-01-10T02:55:23.418Z,72.00
2019-01-10T02:57:52.438Z,69.80
2019-01-10T03:00:23.349Z,71.20
2019-01-10T03:02:53.033Z,70.80
2019-01-10T03:05:23.899Z,70.40
2019-01-10T03:07:53.063Z,71.20
2019-01-10T03:10:26.693Z,72.00
2019-01-10T03:12:55.877Z,69.40
2019-01-10T03:15:26.246Z,72.00
2019-01-10T03:17:55.258Z,70.00
2019-01-10T03:20:24.479Z,72.20
2019-01-10T03:22:53.637Z,70.00
2019-01-10T03:25:22.872Z,72.00
2019-01-10T03:27:52.038Z,72.00
2019-01-10T03:30:21.252Z,70.40
2019-01-10T03:32:50.431Z,70.80
2019-01-10T03:35:19.568Z,72.00
2019-01-10T03:37:48.680Z,72.80
2019-01-10T03:40:19.819Z,72.00
2019-01-10T03:42:49.060Z,71.20
2019-01-10T03:45:19.490Z,73.00
2019-01-10T03:47:48.628Z,72.00
2019-01-10T03:50:17.954Z,72.00
2019-01-10T03:52:47.150Z,72.00
2019-01-10T03:55:16.538Z,72.00
2019-01-10T03:57:45.644Z,72.00
2019-01-10T04:00:20.078Z,72.40
2019-01-10T04:02:49.327Z,73.00
2019-01-10T04:05:18.626Z,72.00
2019-01-10T04:07:49.027Z,71.20
2019-01-10T04:10:18.344Z,72.00
2019-01-10T04:12:47.634Z,72.80
2019-01-10T04:15:17.295Z,72.00
2019-01-10T04:17:46.459Z,72.80
2019-01-10T04:20:17.304Z,72.40
2019-01-10T04:22:46.545Z,72.40
2019-01-10T04:25:16.139Z,72.60
2019-01-10T04:27:45.353Z,72.00
2019-01-10T04:30:17.222Z,72.80
2019-01-10T04:32:46.386Z,71.20
2019-01-10T04:35:15.599Z,72.40
2019-01-10T04:37:44.781Z,73.40
2019-01-10T04:40:16.521Z,72.00
2019-01-10T04:42:45.703Z,72.40
2019-01-10T04:45:15.471Z,72.40
2019-01-10T04:47:44.474Z,73.00
2019-01-10T04:50:14.305Z,72.00
2019-01-10T04:52:43.509Z,72.00
2019-01-10T04:55:12.940Z,72.80
2019-01-10T04:57:42.133Z,72.60
2019-01-10T05:00:20.210Z,72.00
2019-01-10T05:02:49.419Z,72.20
2019-01-10T05:05:20.060Z,73.00
2019-01-10T05:07:49.156Z,73.00
2019-01-10T05:10:18.323Z,72.00
2019-01-10T05:12:47.392Z,72.20
2019-01-10T05:15:16.763Z,72.00
2019-01-10T05:17:45.902Z,72.00
2019-01-10T05:20:17.473Z,72.40
2019-01-10T05:22:46.840Z,73.00
2019-01-10T05:25:16.068Z,72.00
2019-01-10T05:27:45.216Z,73.00
2019-01-10T05:30:17.581Z,72.00
2019-01-10T05:32:46.758Z,73.00
2019-01-10T05:35:15.855Z,72.40
2019-01-10T05:37:44.956Z,72.60
2019-01-10T05:40:14.267Z,72.20
2019-01-10T05:42:43.405Z,73.00
2019-01-10T05:45:13.576Z,72.00
2019-01-10T05:47:43.301Z,72.00
2019-01-10T05:50:14.226Z,72.00
2019-01-10T05:52:43.323Z,73.00
2019-01-10T05:55:14.891Z,73.00
2019-01-10T05:57:43.884Z,72.00
2019-01-10T06:00:34.259Z,72.20
2019-01-10T06:03:03.233Z,72.00
2019-01-10T06:05:33.742Z,73.80
2019-01-10T06:08:02.900Z,73.40
2019-01-10T06:10:32.126Z,72.20
2019-01-10T06:13:01.264Z,72.20
2019-01-10T06:15:30.339Z,74.60
2019-01-10T06:17:59.519Z,72.20
2019-01-10T06:20:28.651Z,73.40
2019-01-10T06:22:57.829Z,73.00
2019-01-10T06:25:26.844Z,73.40
2019-01-10T06:27:55.879Z,74.20
2019-01-10T06:30:25.456Z,72.00
2019-01-10T06:32:54.625Z,72.40
2019-01-10T06:35:23.780Z,72.20
2019-01-10T06:37:52.942Z,73.00
2019-01-10T06:40:22.823Z,73.80
2019-01-10T06:42:51.918Z,73.00
2019-01-10T06:45:21.129Z,73.40
2019-01-10T06:47:50.239Z,72.40
2019-01-10T06:50:19.345Z,75.00
2019-01-10T06:52:48.495Z,72.40
2019-01-10T06:55:17.602Z,74.20
2019-01-10T06:57:46.778Z,72.20
2019-01-10T07:00:18.754Z,74.60
2019-01-10T07:02:48.601Z,74.20
2019-01-10T07:05:17.642Z,73.00
2019-01-10T07:07:55.814Z,73.00
2019-01-10T07:10:23.152Z,72.20
2019-01-10T07:12:52.393Z,75.00
2019-01-10T07:15:21.829Z,72.60
2019-01-10T07:17:50.904Z,74.60
2019-01-10T07:20:21.063Z,74.60
2019-01-10T07:22:51.637Z,73.80
2019-01-10T07:25:20.840Z,73.00
2019-01-10T07:27:50.117Z,73.40
2019-01-10T07:30:35.535Z,73.80
2019-01-10T07:32:57.318Z,73.80
2019-01-10T07:35:26.412Z,73.40
2019-01-10T07:37:57.325Z,75.00
2019-01-10T07:40:27.472Z,75.00
2019-01-10T07:42:56.892Z,74.20
2019-01-10T07:45:27.364Z,74.60
2019-01-10T07:47:56.557Z,73.80
2019-01-10T07:50:36.712Z,75.00
2019-01-10T07:53:10.777Z,75.00
2019-01-10T07:55:40.866Z,75.00
2019-01-10T07:58:10.098Z,75.00
2019-01-10T08:00:39.276Z,74.20
2019-01-10T08:03:08.768Z,75.00
2019-01-10T08:05:38.273Z,75.00
2019-01-10T08:08:08.846Z,75.00
2019-01-10T08:10:38.700Z,73.00
2019-01-10T08:13:08.154Z,75.20
2019-01-10T08:15:37.448Z,75.40
2019-01-10T08:18:06.603Z,75.00
2019-01-10T08:20:35.703Z,75.00
2019-01-10T08:23:05.345Z,75.00
2019-01-10T08:25:34.499Z,75.80
2019-01-10T08:28:03.861Z,72.00
2019-01-10T08:30:33.162Z,75.20
2019-01-10T08:33:02.304Z,75.00
2019-01-10T08:35:31.544Z,75.00
2019-01-10T08:38:00.760Z,75.40
2019-01-10T08:40:29.951Z,75.00
2019-01-10T08:42:59.088Z,75.60
2019-01-10T08:45:28.222Z,76.00
2019-01-10T08:47:57.267Z,76.00
2019-01-10T08:50:27.976Z,76.00
2019-01-10T08:52:57.227Z,75.60
2019-01-10T08:55:26.361Z,75.20
2019-01-10T08:57:55.445Z,76.80
2019-01-10T09:00:25.465Z,75.20
2019-01-10T09:02:55.493Z,75.00
2019-01-10T09:05:24.687Z,75.60
2019-01-10T09:07:53.898Z,75.60
2019-01-10T09:10:25.223Z,75.80
2019-01-10T09:12:54.469Z,76.00
2019-01-10T09:15:33.874Z,76.00
2019-01-10T09:17:54.604Z,75.20
2019-01-10T09:20:24.926Z,76.00
2019-01-10T09:22:54.137Z,75.00
2019-01-10T09:25:23.370Z,75.00
2019-01-10T09:27:52.508Z,75.60
2019-01-10T09:30:22.699Z,76.00
2019-01-10T09:32:51.921Z,75.00
2019-01-10T09:35:21.146Z,76.00
2019-01-10T09:37:50.463Z,76.00
2019-01-10T09:40:20.844Z,76.00
2019-01-10T09:42:50.055Z,76.00
2019-01-10T09:45:21.421Z,76.00
2019-01-10T09:47:50.768Z,76.00
2019-01-10T09:50:21.871Z,76.00
2019-01-10T09:52:51.106Z,75.00
2019-01-10T09:55:20.421Z,75.00
2019-01-10T09:57:49.650Z,77.20
2019-01-10T10:00:30.003Z,75.20
2019-01-10T10:02:59.196Z,75.00
2019-01-10T10:05:31.518Z,75.00
2019-01-10T10:08:00.617Z,75.00
2019-01-10T10:10:32.647Z,75.80
2019-01-10T10:13:01.846Z,75.40
2019-01-10T10:15:31.971Z,75.00
2019-01-10T10:18:01.114Z,76.00
2019-01-10T10:20:30.323Z,76.40
2019-01-10T10:22:59.492Z,76.00
2019-01-10T10:25:28.612Z,75.40
2019-01-10T10:27:57.749Z,76.00
2019-01-10T10:30:26.882Z,76.00
2019-01-10T10:32:56.036Z,78.00
2019-01-10T10:35:25.550Z,77.20
2019-01-10T10:37:54.783Z,76.00
2019-01-10T10:40:23.967Z,76.00
2019-01-10T10:42:53.761Z,79.40
2019-01-10T10:45:23.313Z,79.00
2019-01-10T10:47:52.666Z,78.00
2019-01-10T10:50:24.615Z,78.00
2019-01-10T10:52:53.855Z,78.40
2019-01-10T10:55:23.091Z,76.00
2019-01-10T10:57:52.281Z,78.60
2019-01-10T11:00:23.875Z,78.20
2019-01-10T11:02:53.270Z,79.40
2019-01-10T11:05:22.459Z,78.80
2019-01-10T11:07:51.684Z,78.00
2019-01-10T11:10:21.388Z,78.80
2019-01-10T11:12:50.658Z,78.80
2019-01-10T11:15:20.073Z,79.40
2019-01-10T11:17:49.830Z,78.40
2019-01-10T11:20:20.708Z,79.00
2019-01-10T11:22:50.043Z,81.40
2019-01-10T11:25:24.658Z,82.00
2019-01-10T11:27:53.905Z,81.80
2019-01-10T11:30:23.031Z,79.00
2019-01-10T11:32:53.772Z,79.00
2019-01-10T11:35:23.110Z,79.00
2019-01-10T11:37:52.291Z,79.00
2019-01-10T11:40:22.408Z,81.60
2019-01-10T11:42:51.606Z,78.00
2019-01-10T11:45:23.041Z,78.00
2019-01-10T11:47:52.087Z,79.80
2019-01-10T11:50:21.537Z,81.40
2019-01-10T11:52:50.711Z,83.00
2019-01-10T11:55:19.821Z,80.80
2019-01-10T11:57:48.975Z,79.00
2019-01-10T12:00:26.707Z,79.80
2019-01-10T12:02:55.871Z,81.40
2019-01-10T12:05:25.117Z,80.80
2019-01-10T12:07:54.333Z,79.00
2019-01-10T12:10:25.559Z,80.40
2019-01-10T12:12:54.856Z,82.20
2019-01-10T12:15:23.947Z,81.80
2019-01-10T12:17:53.439Z,78.60
2019-01-10T12:20:22.632Z,82.40
2019-01-10T12:22:51.752Z,80.80
2019-01-10T12:25:20.870Z,79.80
2019-01-10T12:27:50.489Z,82.00
2019-01-10T12:30:21.827Z,83.20
2019-01-10T12:32:51.036Z,81.80
2019-01-10T12:35:20.349Z,81.00
2019-01-10T12:37:49.559Z,82.00
2019-01-10T12:40:18.832Z,81.60
2019-01-10T12:42:48.065Z,81.80
2019-01-10T12:45:18.257Z,81.60
2019-01-10T12:47:47.465Z,81.20
2019-01-10T12:50:19.318Z,81.60
2019-01-10T12:52:48.458Z,79.00
2019-01-10T12:55:20.545Z,82.40
2019-01-10T12:57:49.726Z,81.80
2019-01-10T13:00:21.399Z,81.80
2019-01-10T13:02:50.604Z,82.40
2019-01-10T13:05:19.899Z,83.40
2019-01-10T13:07:49.162Z,82.40
2019-01-10T13:10:19.782Z,82.80
2019-01-10T13:12:49.604Z,82.00
2019-01-10T13:15:21.138Z,79.40
2019-01-10T13:17:50.364Z,82.00
2019-01-10T13:20:20.935Z,82.00
2019-01-10T13:22:50.122Z,82.80
2019-01-10T13:25:19.998Z,79.40
2019-01-10T13:27:49.839Z,82.80
2019-01-10T13:30:20.971Z,82.40
2019-01-10T13:32:50.299Z,84.20
2019-01-10T13:35:19.475Z,81.80
2019-01-10T13:37:48.705Z,84.80
2019-01-10T13:40:18.181Z,85.00
2019-01-10T13:42:47.485Z,82.40
2019-01-10T13:45:16.900Z,85.00
2019-01-10T13:47:48.421Z,84.80
2019-01-10T13:50:19.892Z,85.40
2019-01-10T13:52:49.074Z,85.00
2019-01-10T13:55:18.581Z,82.60
2019-01-10T13:57:47.799Z,82.00
2019-01-10T14:00:35.703Z,81.80
2019-01-10T14:03:04.066Z,80.60
2019-01-10T14:05:33.163Z,82.00
2019-01-10T14:08:02.341Z,82.40
2019-01-10T14:10:31.590Z,84.60
2019-01-10T14:13:00.803Z,83.40
2019-01-10T14:15:35.306Z,80.40
2019-01-10T14:18:05.390Z,79.40
2019-01-10T14:20:34.818Z,81.80
2019-01-10T14:23:04.103Z,79.00
2019-01-10T14:25:34.227Z,81.80
2019-01-10T14:28:03.423Z,81.20
2019-01-10T14:30:39.956Z,78.00
2019-01-10T14:33:14.658Z,79.00
2019-01-10T14:35:43.840Z,78.00
2019-01-10T14:38:13.331Z,79.00
2019-01-10T14:40:42.545Z,78.40
2019-01-10T14:43:12.970Z,78.00
2019-01-10T14:45:43.459Z,78.40
2019-01-10T14:48:12.818Z,78.80
2019-01-10T14:50:41.901Z,79.00
2019-01-10T14:53:11.083Z,78.00
2019-01-10T14:55:40.282Z,78.00
2019-01-10T14:58:09.494Z,79.00
2019-01-10T15:00:38.795Z,85.80
2019-01-10T15:03:07.994Z,81.20
2019-01-10T15:05:37.201Z,79.80
2019-01-10T15:08:06.376Z,76.40
2019-01-10T15:10:36.007Z,80.80
2019-01-10T15:13:05.777Z,81.20
2019-01-10T15:15:34.965Z,79.80
2019-01-10T15:18:04.349Z,80.40
2019-01-10T15:20:33.633Z,79.00
2019-01-10T15:23:02.848Z,79.00
2019-01-10T15:25:32.014Z,79.00
2019-01-10T15:28:01.232Z,79.00
2019-01-10T15:30:30.344Z,78.80
2019-01-10T15:32:59.559Z,79.80
2019-01-10T15:35:28.882Z,79.00
2019-01-10T15:37:58.067Z,80.00
2019-01-10T15:40:30.852Z,79.00
2019-01-10T15:43:00.100Z,79.00
2019-01-10T15:45:29.381Z,78.80
2019-01-10T15:47:58.620Z,80.20
2019-01-10T15:50:27.723Z,82.00
2019-01-10T15:52:57.035Z,81.20
2019-01-10T15:55:26.233Z,82.00
2019-01-10T15:57:55.460Z,82.80
2019-01-10T16:00:24.958Z,79.00
2019-01-10T16:02:54.103Z,81.80
2019-01-10T16:05:23.311Z,79.00
2019-01-10T16:07:52.458Z,79.80
2019-01-10T16:10:21.784Z,79.00
2019-01-10T16:12:51.264Z,81.60
2019-01-10T16:15:22.443Z,79.00
2019-01-10T16:17:51.598Z,79.80
2019-01-10T16:20:21.038Z,79.00
2019-01-10T16:22:50.508Z,80.60
2019-01-10T16:25:19.895Z,80.00
2019-01-10T16:27:49.173Z,89.60
2019-01-10T16:30:20.519Z,85.00
2019-01-10T16:32:49.634Z,80.60
2019-01-10T16:35:18.815Z,79.40
2019-01-10T16:37:48.013Z,84.20
2019-01-10T16:40:17.321Z,81.20
2019-01-10T16:42:46.502Z,80.20
2019-01-10T16:45:36.263Z,79.40
2019-01-10T16:48:05.977Z,79.80
2019-01-10T16:50:35.107Z,79.00
2019-01-10T16:53:04.254Z,79.00
2019-01-10T16:55:34.928Z,82.40
2019-01-10T16:58:04.337Z,82.00
2019-01-10T17:00:34.776Z,84.00
2019-01-10T17:03:04.314Z,82.00
2019-01-10T17:05:33.642Z,93.20
2019-01-10T17:08:03.016Z,81.60
2019-01-10T17:10:32.172Z,82.40
2019-01-10T17:13:01.386Z,79.00
2019-01-10T17:15:29.355Z,82.00
2019-01-10T17:17:58.507Z,81.60
2019-01-10T17:20:29.357Z,79.00
2019-01-10T17:22:59.102Z,81.00
2019-01-10T17:25:31.493Z,78.80
2019-01-10T17:28:00.640Z,79.40
2019-01-10T17:30:31.106Z,82.00
2019-01-10T17:33:00.743Z,81.60
2019-01-10T17:35:34.458Z,79.00
2019-01-10T17:38:04.535Z,79.00
2019-01-10T17:40:33.998Z,80.40
2019-01-10T17:43:04.034Z,78.20
2019-01-10T17:45:36.181Z,79.00
2019-01-10T17:48:08.049Z,78.00
2019-01-10T17:50:37.246Z,79.00
2019-01-10T17:53:06.384Z,82.40
2019-01-10T17:55:35.632Z,81.40
2019-01-10T17:58:05.577Z,79.00
2019-01-10T18:00:34.840Z,79.40
2019-01-10T18:03:04.292Z,78.80
2019-01-10T18:05:33.504Z,79.00
2019-01-10T18:08:02.661Z,79.00
2019-01-10T18:10:31.912Z,78.00
2019-01-10T18:13:01.054Z,78.40
2019-01-10T18:15:30.210Z,78.00
2019-01-10T18:17:59.438Z,81.40
2019-01-10T18:20:35.976Z,78.40
2019-01-10T18:23:05.539Z,79.00
2019-01-10T18:25:34.948Z,80.60
2019-01-10T18:28:04.860Z,79.00
2019-01-10T18:30:35.548Z,79.40
2019-01-10T18:33:04.727Z,81.80
2019-01-10T18:35:33.977Z,78.00
2019-01-10T18:38:03.141Z,78.40
2019-01-10T18:40:32.262Z,81.20
2019-01-10T18:43:01.283Z,94.80
2019-01-10T18:45:32.204Z,78.20
2019-01-10T18:48:01.386Z,81.60
2019-01-10T18:50:30.836Z,80.00
2019-01-10T18:53:00.040Z,82.00
2019-01-10T18:55:29.121Z,79.80
2019-01-10T18:57:58.105Z,80.60
2019-01-10T19:00:29.152Z,78.80
2019-01-10T19:02:59.418Z,79.00
2019-01-10T19:05:29.795Z,79.00
2019-01-10T19:07:59.063Z,89.60
2019-01-10T19:10:29.383Z,82.00
2019-01-10T19:12:58.612Z,78.00
2019-01-10T19:15:27.906Z,79.00
2019-01-10T19:18:03.101Z,81.20
2019-01-10T19:20:29.253Z,78.00
2019-01-10T19:23:00.530Z,81.00
2019-01-10T19:25:29.716Z,79.00
2019-01-10T19:27:58.901Z,84.00
2019-01-10T19:30:33.514Z,79.40
2019-01-10T19:33:02.671Z,79.00
2019-01-10T19:35:31.835Z,79.80
2019-01-10T19:38:01.164Z,79.40
2019-01-10T19:40:31.554Z,79.00
2019-01-10T19:43:00.713Z,81.60
2019-01-10T19:45:29.956Z,82.80
2019-01-10T19:47:59.077Z,82.00
2019-01-10T19:50:28.435Z,78.00
2019-01-10T19:52:57.600Z,78.40
2019-01-10T19:55:26.807Z,79.00
2019-01-10T19:57:55.861Z,83.60
2019-01-10T20:00:30.598Z,81.20
2019-01-10T20:02:59.919Z,84.20
2019-01-10T20:05:29.014Z,79.80
2019-01-10T20:07:59.547Z,84.00
2019-01-10T20:10:28.695Z,80.80
2019-01-10T20:12:57.857Z,81.40
2019-01-10T20:15:26.947Z,82.00
2019-01-10T20:17:56.996Z,82.20
2019-01-10T20:20:38.709Z,83.40
2019-01-10T20:23:10.186Z,81.20
2019-01-10T20:25:39.695Z,82.80
2019-01-10T20:28:10.966Z,81.60
2019-01-10T20:30:42.915Z,79.00
2019-01-10T20:33:12.065Z,78.80
2019-01-10T20:35:41.876Z,80.20
2019-01-10T20:38:12.393Z,81.80
2019-01-10T20:40:41.603Z,87.80
2019-01-10T20:43:10.856Z,79.00
2019-01-10T20:45:39.935Z,84.00
2019-01-10T20:48:09.030Z,81.00
2019-01-10T20:50:38.068Z,79.00
2019-01-10T20:53:07.273Z,82.80
2019-01-10T20:55:36.492Z,84.80
2019-01-10T20:58:05.944Z,83.60
2019-01-10T21:00:35.529Z,84.80
2019-01-10T21:03:04.702Z,80.20
2019-01-10T21:05:33.825Z,82.80
2019-01-10T21:08:02.970Z,84.00
2019-01-10T21:10:33.769Z,83.20
2019-01-10T21:13:03.010Z,82.80
2019-01-10T21:15:33.080Z,87.00
2019-01-10T21:18:02.213Z,81.80
2019-01-10T21:20:31.436Z,84.20
2019-01-10T21:23:00.535Z,85.00
2019-01-10T21:25:29.698Z,84.60
2019-01-10T21:27:58.816Z,84.20
2019-01-10T21:30:28.016Z,82.80
2019-01-10T21:32:57.165Z,83.80
2019-01-10T21:35:26.913Z,81.80
2019-01-10T21:37:56.018Z,80.60
2019-01-10T21:40:25.393Z,83.40
2019-01-10T21:42:54.681Z,84.60
2019-01-10T21:45:24.338Z,81.60
2019-01-10T21:47:53.493Z,84.60
2019-01-10T21:50:24.818Z,84.20
2019-01-10T21:52:54.070Z,84.40
2019-01-10T21:55:23.255Z,79.80
2019-01-10T21:57:53.413Z,79.80
2019-01-10T22:00:31.670Z,82.40
2019-01-10T22:03:02.792Z,85.80
2019-01-10T22:05:32.118Z,85.00
2019-01-10T22:08:04.347Z,79.80
2019-01-10T22:10:35.116Z,85.80
2019-01-10T22:13:04.790Z,83.20
2019-01-10T22:15:34.009Z,85.60
2019-01-10T22:18:03.232Z,81.60
2019-01-10T22:20:33.095Z,81.40
2019-01-10T22:23:02.182Z,81.80
2019-01-10T22:25:31.857Z,83.00
2019-01-10T22:28:00.903Z,85.00
2019-01-10T22:30:30.243Z,87.40
2019-01-10T22:32:59.294Z,87.80
2019-01-10T22:35:28.543Z,84.20
2019-01-10T22:37:58.503Z,85.40
2019-01-10T22:40:27.727Z,85.80
2019-01-10T22:42:56.870Z,85.80
2019-01-10T22:45:26.565Z,80.40
2019-01-10T22:47:56.711Z,88.00
2019-01-10T22:50:27.996Z,84.80
2019-01-10T22:52:57.069Z,89.40
2019-01-10T22:55:26.163Z,84.80
2019-01-10T22:57:55.345Z,88.20
2019-01-10T23:00:52.164Z,85.40
2019-01-10T23:03:21.454Z,86.80
2019-01-10T23:05:50.798Z,88.00
2019-01-10T23:08:21.209Z,85.80
2019-01-10T23:10:55.336Z,85.00
2019-01-10T23:13:24.699Z,88.00
2019-01-10T23:15:53.964Z,86.80
2019-01-10T23:18:24.492Z,84.80
2019-01-10T23:20:59.770Z,84.60
2019-01-10T23:23:28.905Z,85.40
2019-01-10T23:25:57.990Z,89.80
2019-01-10T23:28:28.526Z,88.00
2019-01-10T23:30:59.387Z,88.60
2019-01-10T23:33:28.801Z,86.80
2019-01-10T23:36:00.593Z,89.40
2019-01-10T23:38:31.299Z,87.60
2019-01-10T23:41:01.066Z,90.20
2019-01-10T23:43:30.187Z,85.40
2019-01-10T23:45:59.384Z,90.40
2019-01-10T23:48:28.522Z,89.60
2019-01-10T23:50:57.715Z,91.40
2019-01-10T23:53:26.988Z,93.80
2019-01-10T23:55:56.128Z,90.20
2019-01-10T23:58:26.550Z,89.80
